Wakefield, Mississippi
Current Conditions -  °F | °C
As of 2:15 AM on Thursday 29 Jan 2015 (Local Time) from KUTA Reporting Station
Broken Clouds Broken Clouds  
Wind Chill: 12°   Ceiling: 9500
Heat Index: 12°   Visibility: 10mi
Dew Point:   Wind: 16mph
Humidity: 62%   Direction: 190°S
Pressure: 30.07"   Gusts: 23mph
Location:  34.6957°N, 90.0062°W
Report Text: KUTA 290815Z AUTO 19014G20KT 10SM BKN095 12/05 A3007 RMK AO2
Loading
Personal Weather Stations






























Interactive Weather Map New forecast layout! Learn more

10-Day Weather Forecast

Advertisements
Track Severe Weather on mobile